< < Back
Terminal Aerodrome Forecast


Current Version              Previous Versions:   1  2  3  4  5  6  7  8  9  

Terminal Aerodrome Forecast

522
FTUS42 KCAE 242000 AAA
TAFAGS
TAF AMD
KAGS 242053Z 2421/2518 28012G20KT P6SM SKC
     FM250000 28008KT P6SM SKC
     FM251500 24007KT P6SM SKC=



Latest METAR

952
SAUS70 KWBC 250300 RRA
MTRAGS
METAR KAGS 250253Z 28010KT 10SM CLR 07/M03 A2992 RMK AO2 SLP132
T00671028 51014


USA.gov is the U.S. government's official web portal to all federal, state and local government web resources and services.